createdAt,value
2023-03-06T00:01:51.917Z,2.74
2023-03-06T00:04:19.257Z,2.85
2023-03-06T00:06:45.567Z,2.71
2023-03-06T00:09:11.979Z,2.68
2023-03-06T00:11:38.294Z,2.63
2023-03-06T00:14:04.596Z,2.73
2023-03-06T00:16:30.917Z,2.75
2023-03-06T00:18:57.209Z,2.65
2023-03-06T00:21:23.520Z,2.55
2023-03-06T00:23:49.817Z,2.69
2023-03-06T00:26:16.269Z,2.58
2023-03-06T00:28:42.631Z,2.65
2023-03-06T00:31:08.988Z,2.66
2023-03-06T00:33:35.333Z,2.72
2023-03-06T00:36:01.638Z,2.68
2023-03-06T00:38:31.612Z,2.55
2023-03-06T00:40:57.981Z,2.59
2023-03-06T00:43:24.309Z,2.75
2023-03-06T00:45:50.707Z,2.70
2023-03-06T00:48:17.053Z,2.69
2023-03-06T00:50:43.370Z,2.73
2023-03-06T00:53:11.157Z,2.58
2023-03-06T00:55:37.568Z,2.65
2023-03-06T00:58:03.890Z,2.54
2023-03-06T01:00:30.215Z,2.66
2023-03-06T01:02:56.584Z,2.76
2023-03-06T01:05:22.983Z,2.83
2023-03-06T01:07:49.289Z,2.83
2023-03-06T01:10:15.618Z,2.75
2023-03-06T01:12:41.976Z,2.65
2023-03-06T01:15:08.310Z,2.74
2023-03-06T01:17:34.642Z,2.83
2023-03-06T01:20:01.039Z,2.71
2023-03-06T01:22:27.362Z,2.78
2023-03-06T01:24:53.655Z,2.79
2023-03-06T01:27:19.951Z,2.60
2023-03-06T01:29:46.254Z,2.79
2023-03-06T01:32:12.586Z,2.87
2023-03-06T01:34:38.906Z,2.78
2023-03-06T01:37:05.209Z,2.77
2023-03-06T01:39:31.702Z,2.62
2023-03-06T01:41:58.023Z,2.63
2023-03-06T01:44:24.370Z,2.59
2023-03-06T01:46:50.685Z,2.52
2023-03-06T01:49:17.017Z,2.66
2023-03-06T01:51:43.342Z,2.69
2023-03-06T01:54:09.718Z,2.76
2023-03-06T01:56:36.087Z,2.69
2023-03-06T01:59:02.427Z,2.74
2023-03-06T02:01:28.845Z,2.45
2023-03-06T02:03:55.183Z,2.68
2023-03-06T02:06:22.027Z,2.64
2023-03-06T02:08:48.369Z,2.33
2023-03-06T02:11:14.729Z,2.47
2023-03-06T02:13:41.106Z,2.48
2023-03-06T02:16:08.784Z,2.58
2023-03-06T02:18:35.152Z,2.58
2023-03-06T02:21:01.489Z,2.70
2023-03-06T02:23:27.802Z,2.65
2023-03-06T02:25:54.107Z,2.63
2023-03-06T02:28:20.480Z,2.54
2023-03-06T02:30:47.083Z,2.59
2023-03-06T02:33:13.437Z,2.63
2023-03-06T02:35:39.769Z,2.56
2023-03-06T02:38:06.104Z,2.65
2023-03-06T02:40:32.425Z,2.66
2023-03-06T02:42:58.751Z,2.55
2023-03-06T02:45:25.111Z,2.39
2023-03-06T02:47:51.422Z,2.41
2023-03-06T02:50:17.731Z,2.45
2023-03-06T02:52:44.075Z,2.26
2023-03-06T02:55:10.392Z,2.34
2023-03-06T02:57:36.768Z,2.42
2023-03-06T03:00:03.162Z,2.29
2023-03-06T03:02:29.511Z,2.22
2023-03-06T03:04:55.906Z,2.08
2023-03-06T03:07:22.229Z,2.11
2023-03-06T03:09:48.610Z,2.15
2023-03-06T03:12:14.930Z,2.18
2023-03-06T03:14:41.227Z,2.07
2023-03-06T03:17:07.529Z,1.96
2023-03-06T03:19:33.873Z,1.82
2023-03-06T03:22:00.214Z,1.88
2023-03-06T03:24:26.592Z,1.83
2023-03-06T03:26:53.080Z,1.85
2023-03-06T03:29:19.397Z,1.82
2023-03-06T03:31:45.729Z,1.81
2023-03-06T03:34:12.051Z,1.88
2023-03-06T03:36:38.335Z,1.79
2023-03-06T03:39:04.654Z,1.69
2023-03-06T03:41:31.002Z,1.67
2023-03-06T03:43:57.333Z,1.82
2023-03-06T03:46:23.683Z,1.75
2023-03-06T03:48:50.048Z,1.60
2023-03-06T03:51:16.686Z,1.71
2023-03-06T03:53:43.051Z,1.62
2023-03-06T03:56:09.365Z,1.58
2023-03-06T03:58:35.667Z,1.71
2023-03-06T04:01:02.012Z,1.76
2023-03-06T04:03:28.325Z,1.53
2023-03-06T04:05:55.537Z,1.71
2023-03-06T04:08:21.896Z,1.67
2023-03-06T04:10:48.196Z,1.71
2023-03-06T04:13:14.569Z,1.73
2023-03-06T04:15:40.876Z,1.71
2023-03-06T04:18:07.196Z,1.71
2023-03-06T04:20:33.546Z,1.74
2023-03-06T04:22:59.893Z,1.63
2023-03-06T04:25:26.243Z,1.63
2023-03-06T04:27:52.601Z,1.76
2023-03-06T04:30:18.940Z,1.69
2023-03-06T04:32:45.321Z,1.64
2023-03-06T04:35:12.178Z,1.71
2023-03-06T04:37:38.505Z,1.71
2023-03-06T04:40:04.830Z,1.66
2023-03-06T04:42:31.393Z,1.66
2023-03-06T04:44:57.697Z,1.56
2023-03-06T04:47:24.089Z,1.57
2023-03-06T04:49:50.422Z,1.72
2023-03-06T04:52:16.754Z,1.59
2023-03-06T04:54:43.232Z,1.68
2023-03-06T04:57:09.596Z,1.53
2023-03-06T04:59:38.743Z,1.33
2023-03-06T05:02:05.506Z,1.41
2023-03-06T05:04:31.805Z,1.44
2023-03-06T05:06:58.118Z,1.32
2023-03-06T05:09:24.447Z,1.35
2023-03-06T05:11:50.771Z,1.52
2023-03-06T05:14:17.111Z,1.37
2023-03-06T05:16:43.558Z,1.43
2023-03-06T05:19:09.950Z,1.41
2023-03-06T05:21:36.269Z,1.36
2023-03-06T05:24:02.556Z,1.26
2023-03-06T05:26:28.910Z,1.19
2023-03-06T05:28:55.509Z,1.16
2023-03-06T05:31:21.840Z,1.11
2023-03-06T05:33:48.196Z,1.18
2023-03-06T05:36:14.534Z,1.22
2023-03-06T05:38:40.890Z,1.10
2023-03-06T05:41:07.198Z,1.15
2023-03-06T05:43:33.529Z,1.23
2023-03-06T05:45:59.858Z,1.17
2023-03-06T05:48:26.206Z,1.20
2023-03-06T05:50:52.514Z,1.07
2023-03-06T05:53:18.869Z,1.05
2023-03-06T05:55:45.249Z,1.20
2023-03-06T05:58:11.578Z,1.23
2023-03-06T06:00:37.937Z,1.29
2023-03-06T06:03:04.355Z,1.16
2023-03-06T06:05:30.715Z,1.25
2023-03-06T06:07:57.024Z,1.37
2023-03-06T06:10:23.323Z,1.22
2023-03-06T06:12:49.652Z,1.32
2023-03-06T06:15:15.984Z,1.39
2023-03-06T06:17:42.336Z,1.42
2023-03-06T06:20:08.666Z,1.38
2023-03-06T06:22:34.988Z,1.40
2023-03-06T06:25:01.295Z,1.44
2023-03-06T06:27:27.629Z,1.39
2023-03-06T06:29:53.956Z,1.45
2023-03-06T06:32:20.438Z,1.49
2023-03-06T06:34:46.806Z,1.58
2023-03-06T06:37:13.113Z,1.73
2023-03-06T06:39:39.456Z,1.68
2023-03-06T06:42:28.933Z,1.56
2023-03-06T06:44:52.401Z,1.77
2023-03-06T06:47:23.089Z,1.71
2023-03-06T06:49:51.116Z,1.78
2023-03-06T06:52:18.961Z,1.98
2023-03-06T06:54:45.353Z,2.17
2023-03-06T06:57:11.753Z,2.04
2023-03-06T06:59:38.064Z,2.07
2023-03-06T07:02:04.476Z,1.95
2023-03-06T07:04:30.798Z,1.87
2023-03-06T07:06:57.162Z,1.91
2023-03-06T07:09:23.783Z,2.24
2023-03-06T07:11:50.135Z,2.40
2023-03-06T07:14:16.525Z,2.51
2023-03-06T07:16:42.892Z,2.49
2023-03-06T07:19:09.261Z,2.56
2023-03-06T07:21:35.631Z,2.49
2023-03-06T07:24:01.937Z,2.78
2023-03-06T07:26:28.260Z,2.71
2023-03-06T07:28:55.068Z,2.52
2023-03-06T07:31:22.259Z,2.49
2023-03-06T07:33:48.638Z,2.67
2023-03-06T07:36:15.021Z,2.48
2023-03-06T07:38:41.399Z,2.62
2023-03-06T07:41:13.312Z,2.64
2023-03-06T07:43:39.635Z,2.68
2023-03-06T07:46:05.970Z,2.72
2023-03-06T07:48:32.362Z,2.54
2023-03-06T07:50:58.722Z,2.68
2023-03-06T07:53:26.026Z,3.13
2023-03-06T07:55:52.354Z,3.07
2023-03-06T07:58:18.676Z,3.17
2023-03-06T08:00:45.002Z,3.21
2023-03-06T08:03:11.425Z,3.39
2023-03-06T08:05:37.808Z,3.63
2023-03-06T08:08:04.148Z,3.58
2023-03-06T08:10:30.465Z,3.62
2023-03-06T08:12:56.835Z,3.70
2023-03-06T08:15:23.168Z,3.98
2023-03-06T08:17:49.527Z,4.03
2023-03-06T08:20:16.243Z,4.25
2023-03-06T08:22:42.657Z,4.28
2023-03-06T08:25:09.002Z,4.16
2023-03-06T08:27:35.323Z,4.41
2023-03-06T08:30:01.629Z,4.01
2023-03-06T08:32:28.136Z,3.46
2023-03-06T08:34:54.474Z,4.00
2023-03-06T08:37:20.888Z,3.87
2023-03-06T08:39:47.298Z,3.78
2023-03-06T08:42:14.536Z,4.18
2023-03-06T08:44:40.845Z,4.14
2023-03-06T08:47:07.353Z,4.25
2023-03-06T08:49:33.776Z,4.29
2023-03-06T08:52:00.156Z,4.23
2023-03-06T08:54:26.464Z,4.17
2023-03-06T08:56:53.258Z,4.14
2023-03-06T08:59:19.571Z,4.38
2023-03-06T09:01:46.745Z,4.43
2023-03-06T09:04:13.057Z,4.46
2023-03-06T09:06:39.446Z,4.05
2023-03-06T09:09:05.985Z,3.77
2023-03-06T09:11:32.354Z,4.11
2023-03-06T09:13:58.756Z,4.25
2023-03-06T09:16:25.218Z,3.95
2023-03-06T09:18:54.108Z,4.33
2023-03-06T09:21:20.454Z,4.14
2023-03-06T09:23:46.824Z,3.76
2023-03-06T09:26:13.142Z,3.82
2023-03-06T09:28:39.450Z,4.00
2023-03-06T09:31:05.790Z,4.27
2023-03-06T09:33:33.384Z,4.07
2023-03-06T09:35:59.834Z,4.28
2023-03-06T09:38:26.278Z,4.49
2023-03-06T09:40:52.645Z,4.06
2023-03-06T09:43:18.941Z,4.36
2023-03-06T09:45:45.284Z,4.23
2023-03-06T09:48:11.633Z,4.66
2023-03-06T09:50:37.975Z,4.73
2023-03-06T09:53:04.339Z,4.87
2023-03-06T09:55:30.678Z,5.33
2023-03-06T09:57:57.094Z,5.53
2023-03-06T10:00:23.415Z,5.08
2023-03-06T10:02:49.850Z,5.31
2023-03-06T10:05:16.301Z,5.45
2023-03-06T10:07:43.018Z,5.83
2023-03-06T10:10:09.341Z,5.37
2023-03-06T10:12:35.692Z,5.05
2023-03-06T10:15:02.021Z,5.01
2023-03-06T10:17:28.401Z,5.06
2023-03-06T10:19:54.724Z,5.17
2023-03-06T10:22:21.091Z,5.22
2023-03-06T10:24:47.415Z,5.03
2023-03-06T10:27:13.758Z,5.07
2023-03-06T10:29:41.058Z,5.30
2023-03-06T10:32:07.462Z,4.81
2023-03-06T10:34:33.853Z,4.72
2023-03-06T10:37:00.208Z,4.94
2023-03-06T10:39:28.441Z,4.74
2023-03-06T10:41:54.764Z,4.98
2023-03-06T10:44:21.754Z,5.08
2023-03-06T10:46:48.211Z,4.90
2023-03-06T10:49:14.533Z,5.16
2023-03-06T10:51:40.892Z,5.20
2023-03-06T10:54:07.206Z,5.09
2023-03-06T10:56:33.566Z,4.89
2023-03-06T10:58:59.878Z,5.10
2023-03-06T11:01:26.347Z,5.01
2023-03-06T11:03:54.186Z,4.96
2023-03-06T11:06:20.516Z,5.33
2023-03-06T11:08:46.821Z,5.53
2023-03-06T11:11:13.112Z,5.70
2023-03-06T11:13:39.432Z,5.23
2023-03-06T11:16:05.902Z,5.13
2023-03-06T11:18:35.166Z,5.07
2023-03-06T11:21:01.471Z,4.96
2023-03-06T11:23:27.792Z,4.77
2023-03-06T11:25:54.111Z,4.71
2023-03-06T11:28:20.429Z,4.72
2023-03-06T11:30:46.875Z,4.74
2023-03-06T11:33:13.213Z,4.88
2023-03-06T11:35:39.610Z,4.28
2023-03-06T11:38:07.040Z,4.04
2023-03-06T11:40:33.494Z,4.23
2023-03-06T11:42:59.804Z,4.23
2023-03-06T11:45:26.242Z,4.09
2023-03-06T11:47:52.601Z,4.26
2023-03-06T11:50:19.016Z,4.49
2023-03-06T11:52:45.400Z,4.41
2023-03-06T11:55:11.720Z,4.48
2023-03-06T11:57:38.034Z,4.48
2023-03-06T12:00:04.391Z,4.10
2023-03-06T12:02:30.803Z,4.43
2023-03-06T12:04:57.203Z,4.55
2023-03-06T12:07:23.576Z,4.55
2023-03-06T12:09:49.898Z,4.72
2023-03-06T12:14:42.531Z,5.11
2023-03-06T12:17:08.892Z,5.58
2023-03-06T12:19:35.204Z,5.03
2023-03-06T12:22:01.771Z,5.32
2023-03-06T12:24:28.065Z,5.75
2023-03-06T12:26:54.392Z,5.09
2023-03-06T12:29:20.738Z,5.03
2023-03-06T12:31:47.200Z,5.12
2023-03-06T12:34:13.580Z,5.37
2023-03-06T12:36:39.967Z,5.00
2023-03-06T12:39:06.307Z,5.39
2023-03-06T12:41:32.631Z,5.40
2023-03-06T12:43:59.012Z,5.64
2023-03-06T12:46:25.348Z,4.81
2023-03-06T12:48:51.865Z,4.93
2023-03-06T12:51:18.210Z,4.87
2023-03-06T12:53:44.525Z,4.84
2023-03-06T12:56:10.867Z,4.74
2023-03-06T12:58:37.214Z,4.62
2023-03-06T13:01:06.040Z,5.05
2023-03-06T13:03:32.446Z,4.57
2023-03-06T13:05:58.761Z,5.07
2023-03-06T13:08:25.365Z,4.63
2023-03-06T13:10:51.710Z,4.69
2023-03-06T13:13:18.083Z,4.52
2023-03-06T13:15:45.603Z,4.38
2023-03-06T13:18:11.962Z,3.82
2023-03-06T13:20:38.588Z,3.75
2023-03-06T13:23:04.949Z,3.19
2023-03-06T13:25:32.672Z,3.21
2023-03-06T13:27:59.010Z,2.93
2023-03-06T13:30:27.233Z,3.03
2023-03-06T13:32:53.648Z,3.25
2023-03-06T13:35:20.077Z,3.22
2023-03-06T13:37:46.481Z,3.33
2023-03-06T13:40:12.794Z,3.56
2023-03-06T13:42:39.778Z,3.69
2023-03-06T13:45:06.140Z,3.85
2023-03-06T13:47:32.520Z,4.01
2023-03-06T13:49:58.861Z,3.99
2023-03-06T13:52:25.392Z,4.10
2023-03-06T13:54:51.695Z,4.27
2023-03-06T13:57:18.020Z,4.05
2023-03-06T13:59:44.320Z,3.81
2023-03-06T14:02:10.636Z,3.53
2023-03-06T14:04:36.994Z,3.91
2023-03-06T14:07:05.478Z,4.11
2023-03-06T14:09:32.532Z,4.48
2023-03-06T14:11:58.920Z,4.75
2023-03-06T14:14:25.236Z,4.88
2023-03-06T14:16:53.590Z,5.28
2023-03-06T14:19:20.101Z,5.34
2023-03-06T14:21:46.493Z,5.37
2023-03-06T14:24:12.959Z,5.52
2023-03-06T14:26:39.295Z,5.06
2023-03-06T14:29:05.613Z,5.11
2023-03-06T14:31:32.060Z,5.44
2023-03-06T14:33:58.644Z,5.49
2023-03-06T14:36:24.977Z,5.41
2023-03-06T14:38:51.311Z,5.60
2023-03-06T14:41:17.645Z,4.75
2023-03-06T14:43:43.956Z,4.45
2023-03-06T14:46:10.388Z,4.70
2023-03-06T14:48:38.572Z,4.54
2023-03-06T14:51:04.912Z,4.50
2023-03-06T14:53:31.344Z,4.86
2023-03-06T14:55:59.027Z,4.69
2023-03-06T14:58:25.339Z,5.00
2023-03-06T15:00:51.736Z,5.06
2023-03-06T15:03:18.264Z,4.90
2023-03-06T15:05:44.642Z,4.77
2023-03-06T15:08:11.266Z,4.71
2023-03-06T15:10:37.649Z,4.93
2023-03-06T15:13:03.966Z,4.90
2023-03-06T15:15:30.340Z,4.83
2023-03-06T15:17:56.726Z,4.81
2023-03-06T15:20:23.028Z,4.52
2023-03-06T15:22:49.347Z,4.63
2023-03-06T15:25:15.655Z,4.74
2023-03-06T15:27:41.967Z,4.60
2023-03-06T15:30:08.287Z,4.62
2023-03-06T15:32:34.744Z,4.77
2023-03-06T15:35:01.099Z,4.53
2023-03-06T15:37:27.681Z,4.51
2023-03-06T15:39:53.991Z,4.58
2023-03-06T15:42:20.484Z,4.49
2023-03-06T15:44:46.839Z,4.46
2023-03-06T15:47:13.163Z,4.50
2023-03-06T15:49:39.518Z,4.56
2023-03-06T15:52:05.850Z,4.76
2023-03-06T15:54:33.107Z,4.60
2023-03-06T15:56:59.550Z,4.48
2023-03-06T15:59:26.116Z,4.62
2023-03-06T16:01:52.461Z,4.65
2023-03-06T16:04:18.975Z,4.69
2023-03-06T16:06:45.935Z,4.29
2023-03-06T16:09:12.521Z,4.11
2023-03-06T16:11:44.081Z,3.71
2023-03-06T16:14:10.569Z,2.93
2023-03-06T16:16:36.960Z,2.47
2023-03-06T16:19:04.118Z,2.25
2023-03-06T16:21:31.380Z,2.29
2023-03-06T16:23:57.680Z,1.98
2023-03-06T16:26:24.006Z,1.88
2023-03-06T16:28:50.320Z,1.87
2023-03-06T16:31:16.698Z,2.07
2023-03-06T16:33:43.025Z,1.79
2023-03-06T16:36:09.382Z,1.89
2023-03-06T16:38:35.690Z,1.96
2023-03-06T16:41:01.985Z,1.98
2023-03-06T16:43:28.355Z,2.04
2023-03-06T16:45:54.753Z,2.10
2023-03-06T16:48:21.203Z,2.13
2023-03-06T16:50:47.600Z,2.28
2023-03-06T16:53:14.039Z,2.05
2023-03-06T16:55:40.352Z,1.93
2023-03-06T16:58:08.662Z,2.24
2023-03-06T17:00:34.960Z,2.00
2023-03-06T17:03:01.342Z,2.03
2023-03-06T17:05:27.963Z,2.35
2023-03-06T17:07:54.281Z,2.62
2023-03-06T17:10:22.815Z,2.72
2023-03-06T17:12:49.355Z,2.81
2023-03-06T17:15:15.801Z,2.92
2023-03-06T17:17:42.261Z,2.92
2023-03-06T17:20:08.595Z,2.38
2023-03-06T17:22:35.394Z,2.63
2023-03-06T17:25:01.752Z,2.74
2023-03-06T17:27:28.039Z,2.71
2023-03-06T17:29:54.355Z,2.76
2023-03-06T17:32:20.741Z,2.84
2023-03-06T17:34:47.066Z,2.82
2023-03-06T17:37:13.390Z,2.86
2023-03-06T17:39:39.743Z,2.82
2023-03-06T17:42:06.587Z,2.71
2023-03-06T17:44:32.919Z,2.78
2023-03-06T17:46:59.261Z,2.91
2023-03-06T17:49:25.602Z,2.92
2023-03-06T17:51:51.944Z,2.81
2023-03-06T17:54:18.345Z,2.72
2023-03-06T17:56:44.671Z,2.88
2023-03-06T17:59:11.004Z,2.98
2023-03-06T18:01:37.391Z,2.99
2023-03-06T18:04:03.931Z,3.02
2023-03-06T18:06:30.407Z,2.99
2023-03-06T18:08:56.731Z,2.94
2023-03-06T18:11:23.094Z,2.85
2023-03-06T18:13:49.417Z,2.94
2023-03-06T18:16:15.793Z,2.98
2023-03-06T18:18:42.237Z,2.87
2023-03-06T18:21:09.189Z,2.90
2023-03-06T18:23:36.150Z,2.95
2023-03-06T18:26:02.530Z,2.82
2023-03-06T18:28:30.806Z,2.82
2023-03-06T18:30:57.161Z,2.87
2023-03-06T18:33:23.470Z,2.77
2023-03-06T18:35:49.807Z,2.71
2023-03-06T18:38:16.174Z,2.76
2023-03-06T18:40:42.499Z,2.46
2023-03-06T18:43:08.874Z,2.49
2023-03-06T18:45:35.229Z,2.24
2023-03-06T18:48:01.616Z,2.31
2023-03-06T18:50:29.601Z,2.26
2023-03-06T18:52:55.927Z,2.37
2023-03-06T18:55:22.219Z,2.16
2023-03-06T18:57:48.544Z,2.35
2023-03-06T19:00:16.621Z,2.35
2023-03-06T19:02:42.938Z,2.28
2023-03-06T19:05:09.261Z,2.40
2023-03-06T19:07:35.610Z,2.49
2023-03-06T19:10:01.938Z,2.42
2023-03-06T19:12:28.256Z,2.26
2023-03-06T19:14:54.578Z,2.62
2023-03-06T19:17:20.888Z,2.67
2023-03-06T19:19:47.223Z,2.34
2023-03-06T19:22:13.526Z,2.45
2023-03-06T19:24:39.889Z,2.33
2023-03-06T19:27:06.244Z,2.29
2023-03-06T19:29:33.522Z,2.54
2023-03-06T19:32:00.028Z,2.47
2023-03-06T19:34:26.385Z,2.49
2023-03-06T19:36:52.786Z,2.44
2023-03-06T19:39:19.160Z,2.56
2023-03-06T19:41:45.473Z,2.75
2023-03-06T19:44:13.068Z,2.82
2023-03-06T19:46:40.799Z,2.89
2023-03-06T19:49:11.889Z,2.90
2023-03-06T19:51:38.215Z,2.98
2023-03-06T19:54:04.517Z,2.99
2023-03-06T19:56:31.983Z,3.04
2023-03-06T19:58:58.354Z,2.95
2023-03-06T20:01:25.127Z,2.95
2023-03-06T20:03:52.210Z,2.86
2023-03-06T20:06:18.646Z,2.90
2023-03-06T20:08:45.014Z,2.88
2023-03-06T20:11:11.363Z,2.53
2023-03-06T20:13:40.932Z,2.57
2023-03-06T20:16:11.000Z,2.58
2023-03-06T20:18:37.338Z,2.70
2023-03-06T20:21:03.730Z,2.71
2023-03-06T20:23:30.045Z,2.75
2023-03-06T20:25:56.578Z,2.79
2023-03-06T20:28:22.943Z,2.75
2023-03-06T20:30:49.477Z,2.83
2023-03-06T20:33:16.831Z,2.79
2023-03-06T20:35:43.234Z,2.75
2023-03-06T20:38:09.627Z,2.64
2023-03-06T20:40:35.956Z,2.67
2023-03-06T20:43:02.303Z,2.61
2023-03-06T20:45:28.591Z,2.65
2023-03-06T20:47:56.349Z,2.64
2023-03-06T20:50:22.658Z,2.59
2023-03-06T20:52:48.996Z,2.40
2023-03-06T20:55:15.496Z,2.31
2023-03-06T20:57:41.979Z,2.27
2023-03-06T21:00:09.154Z,2.33
2023-03-06T21:02:35.575Z,2.39
2023-03-06T21:05:03.016Z,2.48
2023-03-06T21:07:29.356Z,2.48
2023-03-06T21:09:55.704Z,2.44
2023-03-06T21:12:22.024Z,2.43
2023-03-06T21:14:48.360Z,2.28
2023-03-06T21:17:17.778Z,2.42
2023-03-06T21:19:44.380Z,2.49
2023-03-06T21:22:10.802Z,2.53
2023-03-06T21:24:37.184Z,2.47
2023-03-06T21:27:03.748Z,2.50
2023-03-06T21:29:30.057Z,2.63
2023-03-06T21:31:56.369Z,2.57
2023-03-06T21:34:22.724Z,2.52
2023-03-06T21:36:49.263Z,2.52
2023-03-06T21:39:15.734Z,2.56
2023-03-06T21:41:42.271Z,2.65
2023-03-06T21:44:08.726Z,2.65
2023-03-06T21:46:35.136Z,2.69
2023-03-06T21:49:01.474Z,2.69
2023-03-06T21:51:27.895Z,2.74
2023-03-06T21:53:54.377Z,2.61
2023-03-06T21:56:20.843Z,2.53
2023-03-06T21:58:47.352Z,2.65
2023-03-06T22:01:13.884Z,2.59
2023-03-06T22:03:40.196Z,2.51
2023-03-06T22:06:06.666Z,2.36
2023-03-06T22:08:33.903Z,2.29
2023-03-06T22:11:03.386Z,2.11
2023-03-06T22:13:29.767Z,2.09
2023-03-06T22:15:56.113Z,2.00
2023-03-06T22:18:22.435Z,2.00
2023-03-06T22:20:48.788Z,1.96
2023-03-06T22:23:15.178Z,1.49
2023-03-06T22:25:41.512Z,1.73
2023-03-06T22:28:07.851Z,1.76
2023-03-06T22:30:34.188Z,1.62
2023-03-06T22:33:00.580Z,1.63
2023-03-06T22:35:26.902Z,1.63
2023-03-06T22:37:53.296Z,1.66
2023-03-06T22:40:19.615Z,1.53
2023-03-06T22:42:45.975Z,1.61
2023-03-06T22:45:12.276Z,1.63
2023-03-06T22:47:38.594Z,1.60
2023-03-06T22:50:04.994Z,1.57
2023-03-06T22:52:31.312Z,1.60
2023-03-06T22:54:58.022Z,1.65
2023-03-06T22:57:24.341Z,1.62
2023-03-06T22:59:50.653Z,1.46
2023-03-06T23:02:16.970Z,1.53
2023-03-06T23:04:43.388Z,1.51
2023-03-06T23:07:09.860Z,1.48
2023-03-06T23:09:36.211Z,1.57
2023-03-06T23:12:02.540Z,1.49
2023-03-06T23:14:28.860Z,1.51
2023-03-06T23:16:55.195Z,1.42
2023-03-06T23:19:21.493Z,1.47
2023-03-06T23:21:47.779Z,1.54
2023-03-06T23:24:14.134Z,1.65
2023-03-06T23:26:40.798Z,1.66
2023-03-06T23:29:07.112Z,1.68
2023-03-06T23:31:33.434Z,1.71
2023-03-06T23:33:59.958Z,1.79
2023-03-06T23:36:26.251Z,1.85
2023-03-06T23:38:52.625Z,1.85
2023-03-06T23:41:18.950Z,1.89
2023-03-06T23:43:45.280Z,1.88
2023-03-06T23:46:11.655Z,1.78
2023-03-06T23:48:38.023Z,1.93
2023-03-06T23:51:04.353Z,1.86
2023-03-06T23:53:30.667Z,1.94
2023-03-06T23:55:57.363Z,1.97
2023-03-06T23:58:23.720Z,1.99
